createdAt,value
2023-05-27T00:03:47.312Z,5.10
2023-05-27T00:07:48.755Z,4.80
2023-05-27T00:11:49.962Z,4.90
2023-05-27T00:15:52.074Z,4.23
2023-05-27T00:19:54.308Z,4.50
2023-05-27T00:23:57.515Z,4.97
2023-05-27T00:27:59.510Z,5.37
2023-05-27T00:32:04.765Z,5.20
2023-05-27T00:36:06.225Z,5.17
2023-05-27T00:40:10.958Z,3.97
2023-05-27T00:44:12.168Z,3.93
2023-05-27T00:48:13.427Z,4.60
2023-05-27T00:52:14.769Z,4.50
2023-05-27T00:56:15.974Z,5.00
2023-05-27T01:00:17.473Z,5.33
2023-05-27T01:04:19.189Z,5.07
2023-05-27T01:08:27.220Z,4.70
2023-05-27T01:12:32.597Z,5.40
2023-05-27T01:16:36.571Z,5.43
2023-05-27T01:20:45.034Z,4.20
2023-05-27T01:24:46.698Z,5.47
2023-05-27T01:28:47.912Z,4.17
2023-05-27T01:32:52.985Z,5.80
2023-05-27T01:36:59.226Z,5.03
2023-05-27T01:41:01.482Z,5.70
2023-05-27T01:45:08.153Z,5.03
2023-05-27T01:49:10.259Z,5.43
2023-05-27T01:53:12.249Z,4.00
2023-05-27T01:57:14.119Z,5.07
2023-05-27T02:01:16.660Z,5.20
2023-05-27T02:05:17.922Z,4.83
2023-05-27T02:09:19.116Z,4.70
2023-05-27T02:13:20.445Z,5.77
2023-05-27T02:17:21.662Z,5.00
2023-05-27T02:21:22.882Z,5.33
2023-05-27T02:25:24.082Z,4.90
2023-05-27T02:29:25.390Z,4.97
2023-05-27T02:33:27.277Z,5.40
2023-05-27T02:37:29.151Z,4.93
2023-05-27T02:41:31.011Z,4.53
2023-05-27T02:45:32.236Z,4.63
2023-05-27T02:49:33.403Z,5.17
2023-05-27T02:53:34.620Z,5.20
2023-05-27T02:57:35.912Z,5.10
2023-05-27T03:01:37.140Z,5.23
2023-05-27T03:05:38.310Z,5.37
2023-05-27T03:09:39.605Z,4.83
2023-05-27T03:13:40.820Z,4.60
2023-05-27T03:17:42.178Z,5.00
2023-05-27T03:21:44.606Z,5.20
2023-05-27T03:25:45.921Z,4.80
2023-05-27T03:29:48.037Z,5.93
2023-05-27T03:33:50.644Z,5.63
2023-05-27T03:37:53.036Z,5.57
2023-05-27T03:41:54.783Z,4.80
2023-05-27T03:45:57.270Z,5.67
2023-05-27T03:49:59.600Z,5.67
2023-05-27T03:54:01.389Z,6.83
2023-05-27T03:58:03.115Z,7.50
2023-05-27T04:02:05.544Z,5.60
2023-05-27T04:06:08.522Z,6.20
2023-05-27T04:10:11.377Z,5.60
2023-05-27T04:14:13.201Z,6.40
2023-05-27T04:18:15.841Z,5.47
2023-05-27T04:22:19.941Z,4.67
2023-05-27T04:26:23.444Z,6.13
2023-05-27T04:30:25.375Z,5.90
2023-05-27T04:34:27.433Z,4.87
2023-05-27T04:38:30.526Z,6.10
2023-05-27T04:42:33.439Z,5.43
2023-05-27T04:46:34.710Z,5.47
2023-05-27T04:50:36.050Z,5.17
2023-05-27T04:54:37.464Z,6.33
2023-05-27T04:58:40.080Z,5.37
2023-05-27T05:02:42.354Z,5.80
2023-05-27T05:06:43.900Z,6.30
2023-05-27T05:10:48.509Z,6.70
2023-05-27T05:14:51.742Z,6.43
2023-05-27T05:18:52.960Z,6.50
2023-05-27T05:22:54.151Z,5.47
2023-05-27T05:26:55.598Z,5.97
2023-05-27T05:30:56.907Z,6.07
2023-05-27T05:34:58.134Z,6.10
2023-05-27T05:38:59.326Z,6.37
2023-05-27T05:43:00.585Z,5.37
2023-05-27T05:47:03.120Z,6.07
2023-05-27T05:51:04.309Z,5.77
2023-05-27T05:55:06.525Z,5.57
2023-05-27T05:59:07.932Z,6.20
2023-05-27T06:03:09.386Z,5.00
2023-05-27T06:07:10.888Z,6.40
2023-05-27T06:11:12.271Z,6.57
2023-05-27T06:15:13.458Z,5.80
2023-05-27T06:19:14.860Z,6.13
2023-05-27T06:23:16.067Z,5.50
2023-05-27T06:27:19.148Z,4.50
2023-05-27T06:31:20.375Z,6.63
2023-05-27T06:35:22.990Z,6.47
2023-05-27T06:39:24.284Z,5.57
2023-05-27T06:43:26.785Z,6.80
2023-05-27T06:47:27.975Z,5.73
2023-05-27T06:51:29.159Z,5.03
2023-05-27T06:55:30.959Z,5.70
2023-05-27T06:59:32.170Z,5.70
2023-05-27T07:03:33.585Z,6.50
2023-05-27T07:07:35.561Z,5.70
2023-05-27T07:11:36.703Z,5.30
2023-05-27T07:15:37.968Z,5.17
2023-05-27T07:19:39.302Z,5.60
2023-05-27T07:23:40.512Z,5.97
2023-05-27T07:27:41.816Z,4.77
2023-05-27T07:31:43.074Z,5.17
2023-05-27T07:35:44.462Z,6.13
2023-05-27T07:39:45.690Z,5.00
2023-05-27T07:43:46.869Z,5.90
2023-05-27T07:47:48.107Z,4.60
2023-05-27T07:51:49.307Z,5.00
2023-05-27T07:55:50.626Z,4.30
2023-05-27T07:59:51.839Z,5.37
2023-05-27T08:03:53.053Z,4.73
2023-05-27T08:07:54.335Z,5.10
2023-05-27T08:11:55.530Z,4.60
2023-05-27T08:15:57.328Z,4.13
2023-05-27T08:19:58.548Z,5.53
2023-05-27T08:24:00.752Z,4.93
2023-05-27T08:28:02.304Z,5.47
2023-05-27T08:32:04.128Z,5.03
2023-05-27T08:36:06.355Z,5.20
2023-05-27T08:40:10.218Z,5.57
2023-05-27T08:44:21.313Z,4.90
2023-05-27T08:48:16.648Z,5.70
2023-05-27T08:52:20.683Z,5.00
2023-05-27T08:56:22.971Z,4.87
2023-05-27T09:00:26.538Z,4.90
2023-05-27T09:04:27.781Z,4.27
2023-05-27T09:08:42.284Z,4.90
2023-05-27T09:12:34.114Z,4.87
2023-05-27T09:16:39.167Z,5.30
2023-05-27T09:20:40.620Z,5.13
2023-05-27T09:24:41.822Z,5.50
2023-05-27T09:28:44.144Z,5.67
2023-05-27T09:32:45.864Z,5.37
2023-05-27T09:36:49.964Z,4.80
2023-05-27T09:40:51.454Z,4.73
2023-05-27T09:44:55.233Z,4.73
2023-05-27T09:48:59.742Z,5.57
2023-05-27T09:53:11.079Z,6.30
2023-05-27T09:57:09.802Z,5.13
2023-05-27T10:01:11.945Z,4.93
2023-05-27T10:05:15.386Z,5.03
2023-05-27T10:09:16.886Z,5.03
2023-05-27T10:13:20.589Z,4.47
2023-05-27T10:17:21.932Z,4.33
2023-05-27T10:21:28.297Z,5.13
2023-05-27T10:25:37.216Z,6.27
2023-05-27T10:29:39.238Z,4.03
2023-05-27T10:33:46.387Z,5.53
2023-05-27T10:37:47.864Z,5.30
2023-05-27T10:41:51.398Z,4.50
2023-05-27T10:46:04.987Z,5.10
2023-05-27T10:50:11.185Z,5.97
2023-05-27T10:54:28.311Z,4.93
2023-05-27T10:58:18.017Z,5.10
2023-05-27T11:02:20.650Z,5.57
2023-05-27T11:06:23.771Z,5.37
2023-05-27T11:10:25.178Z,5.03
2023-05-27T11:14:26.372Z,5.60
2023-05-27T11:18:46.533Z,5.43
2023-05-27T11:22:51.683Z,5.33
2023-05-27T11:26:52.914Z,5.20
2023-05-27T11:31:04.337Z,3.77
2023-05-27T11:35:09.892Z,5.10
2023-05-27T11:39:18.865Z,4.60
2023-05-27T11:43:20.086Z,5.30
2023-05-27T11:47:22.564Z,6.60
2023-05-27T11:51:29.428Z,4.87
2023-05-27T11:55:31.370Z,4.83
2023-05-27T11:59:34.064Z,4.80
2023-05-27T12:03:36.035Z,4.80
2023-05-27T12:07:39.250Z,4.20
2023-05-27T12:11:40.484Z,4.80
2023-05-27T12:15:41.718Z,5.30
2023-05-27T12:19:42.883Z,4.97
2023-05-27T12:23:44.197Z,5.07
2023-05-27T12:27:45.997Z,6.20
2023-05-27T12:31:48.001Z,5.10
2023-05-27T12:35:49.770Z,4.83
2023-05-27T12:39:52.105Z,4.60
2023-05-27T12:43:53.305Z,4.87
2023-05-27T12:47:55.125Z,4.97
2023-05-27T12:51:56.425Z,4.33
2023-05-27T12:55:57.633Z,4.47
2023-05-27T12:59:58.878Z,5.00
2023-05-27T13:04:00.139Z,5.70
2023-05-27T13:08:04.793Z,4.53
2023-05-27T13:12:06.649Z,4.63
2023-05-27T13:16:07.877Z,5.20
2023-05-27T13:20:09.731Z,7.97
2023-05-27T13:24:10.982Z,4.20
2023-05-27T13:28:14.377Z,5.30
2023-05-27T13:32:15.633Z,5.00
2023-05-27T13:36:16.879Z,5.27
2023-05-27T13:40:19.378Z,4.43
2023-05-27T13:44:20.605Z,5.43
2023-05-27T13:48:22.222Z,4.60
2023-05-27T13:52:24.053Z,4.63
2023-05-27T13:56:25.346Z,5.20
2023-05-27T14:00:26.659Z,4.43
2023-05-27T14:04:28.114Z,5.13
2023-05-27T14:08:29.685Z,4.80
2023-05-27T14:12:30.896Z,4.17
2023-05-27T14:16:32.140Z,4.60
2023-05-27T14:20:34.270Z,4.27
2023-05-27T14:24:36.357Z,4.67
2023-05-27T14:28:37.581Z,4.80
2023-05-27T14:32:38.796Z,4.90
2023-05-27T14:36:40.987Z,4.63
2023-05-27T14:40:44.422Z,4.47
2023-05-27T14:44:45.620Z,4.10
2023-05-27T14:48:48.216Z,4.70
2023-05-27T14:52:50.859Z,4.40
2023-05-27T14:56:52.346Z,3.90
2023-05-27T15:00:53.793Z,4.50
2023-05-27T15:04:55.421Z,4.40
2023-05-27T15:08:58.346Z,4.23
2023-05-27T15:13:00.336Z,4.00
2023-05-27T15:17:02.735Z,4.07
2023-05-27T15:21:03.961Z,4.10
2023-05-27T15:25:06.599Z,3.67
2023-05-27T15:29:07.878Z,4.60
2023-05-27T15:33:09.344Z,3.90
2023-05-27T15:37:10.570Z,4.70
2023-05-27T15:41:11.789Z,5.67
2023-05-27T15:45:13.751Z,3.90
2023-05-27T15:49:15.699Z,4.10
2023-05-27T15:53:16.887Z,5.60
2023-05-27T15:57:18.626Z,3.90
2023-05-27T16:01:19.885Z,3.90
2023-05-27T16:05:22.578Z,4.27
2023-05-27T16:09:24.343Z,3.80
2023-05-27T16:13:25.737Z,4.20
2023-05-27T16:17:28.924Z,4.47
2023-05-27T16:21:32.145Z,3.13
2023-05-27T16:25:37.449Z,4.40
2023-05-27T16:29:44.092Z,4.50
2023-05-27T16:33:45.754Z,4.00
2023-05-27T16:37:47.857Z,4.07
2023-05-27T16:41:49.743Z,4.70
2023-05-27T16:45:51.054Z,4.00
2023-05-27T16:49:52.211Z,4.23
2023-05-27T16:53:53.473Z,3.27
2023-05-27T16:57:55.315Z,4.10
2023-05-27T17:01:56.722Z,4.13
2023-05-27T17:05:59.286Z,3.97
2023-05-27T17:10:00.728Z,3.80
2023-05-27T17:14:02.527Z,4.57
2023-05-27T17:18:04.158Z,3.97
2023-05-27T17:22:05.569Z,3.97
2023-05-27T17:26:06.901Z,4.17
2023-05-27T17:30:08.891Z,4.17
2023-05-27T17:34:10.215Z,4.07
2023-05-27T17:38:12.173Z,4.67
2023-05-27T17:42:13.606Z,3.87
2023-05-27T17:46:15.421Z,4.20
2023-05-27T17:50:17.082Z,4.43
2023-05-27T17:54:18.571Z,4.60
2023-05-27T17:58:19.874Z,3.67
2023-05-27T18:02:21.187Z,4.90
2023-05-27T18:06:22.595Z,4.60
2023-05-27T18:10:24.569Z,4.50
2023-05-27T18:14:26.623Z,3.80
2023-05-27T18:18:28.155Z,4.30
2023-05-27T18:22:29.577Z,4.60
2023-05-27T18:26:30.932Z,4.30
2023-05-27T18:30:32.710Z,4.53
2023-05-27T18:34:34.014Z,3.83
2023-05-27T18:38:35.664Z,4.70
2023-05-27T18:42:37.615Z,5.40
2023-05-27T18:46:39.229Z,6.40
2023-05-27T18:50:40.726Z,6.10
2023-05-27T18:54:42.149Z,6.40
2023-05-27T18:58:43.479Z,6.30
2023-05-27T19:02:45.395Z,6.97
2023-05-27T19:06:47.029Z,6.37
2023-05-27T19:10:48.772Z,6.60
2023-05-27T19:14:50.242Z,6.37
2023-05-27T19:18:53.514Z,5.90
2023-05-27T19:22:54.888Z,6.40
2023-05-27T19:26:56.409Z,6.73
2023-05-27T19:30:57.797Z,5.70
2023-05-27T19:34:59.247Z,6.70
2023-05-27T19:39:00.877Z,7.13
2023-05-27T19:43:02.302Z,7.00
2023-05-27T19:47:04.061Z,8.00
2023-05-27T19:51:05.482Z,11.00
2023-05-27T19:55:07.489Z,8.73
2023-05-27T19:59:08.816Z,6.90
2023-05-27T20:03:10.537Z,7.90
2023-05-27T20:07:12.010Z,7.43
2023-05-27T20:11:13.656Z,7.77
2023-05-27T20:15:15.900Z,6.90
2023-05-27T20:19:17.770Z,6.50
2023-05-27T20:23:19.041Z,7.40
2023-05-27T20:27:20.474Z,7.80
2023-05-27T20:31:23.246Z,8.87
2023-05-27T20:35:24.633Z,7.77
2023-05-27T20:39:26.029Z,7.60
2023-05-27T20:43:27.469Z,7.43
2023-05-27T20:47:30.223Z,7.07
2023-05-27T20:51:33.385Z,6.60
2023-05-27T20:55:36.952Z,6.60
2023-05-27T20:59:39.126Z,7.33
2023-05-27T21:03:41.228Z,7.37
2023-05-27T21:07:46.734Z,7.70
2023-05-27T21:11:49.488Z,6.37
2023-05-27T21:15:51.829Z,5.90
2023-05-27T21:19:54.402Z,6.90
2023-05-27T21:23:56.726Z,6.50
2023-05-27T21:27:59.271Z,6.83
2023-05-27T21:32:01.815Z,6.30
2023-05-27T21:36:04.041Z,6.77
2023-05-27T21:40:10.211Z,6.10
2023-05-27T21:44:14.398Z,7.03
2023-05-27T21:48:15.968Z,6.40
2023-05-27T21:52:18.992Z,5.97
2023-05-27T21:56:20.455Z,6.50
2023-05-27T22:00:22.513Z,7.17
2023-05-27T22:04:23.896Z,6.53
2023-05-27T22:08:25.455Z,6.20
2023-05-27T22:12:26.806Z,7.00
2023-05-27T22:16:28.142Z,6.60
2023-05-27T22:20:29.613Z,7.10
2023-05-27T22:24:30.954Z,6.33
2023-05-27T22:28:32.302Z,6.43
2023-05-27T22:32:37.113Z,6.10
2023-05-27T22:36:39.306Z,6.53
2023-05-27T22:40:40.641Z,7.23
2023-05-27T22:44:42.053Z,7.60
2023-05-27T22:48:43.910Z,7.70
2023-05-27T22:52:45.270Z,7.00
2023-05-27T22:56:46.827Z,6.70
2023-05-27T23:00:48.187Z,7.63
2023-05-27T23:04:49.533Z,6.53
2023-05-27T23:08:51.140Z,7.50
2023-05-27T23:12:52.444Z,6.83
2023-05-27T23:16:55.504Z,7.43
2023-05-27T23:20:57.753Z,6.43
2023-05-27T23:24:59.075Z,7.07
2023-05-27T23:29:00.511Z,7.07
2023-05-27T23:33:01.834Z,7.00
2023-05-27T23:37:03.328Z,6.63
2023-05-27T23:41:04.730Z,7.43
2023-05-27T23:45:06.643Z,6.50
2023-05-27T23:49:08.007Z,6.57
2023-05-27T23:53:09.398Z,6.00
2023-05-27T23:57:11.821Z,7.03
